createdAt,value
2022-09-01T00:00:30.134Z,64.47
2022-09-01T00:03:04.663Z,64.54
2022-09-01T00:05:33.298Z,64.41
2022-09-01T00:08:01.795Z,64.42
2022-09-01T00:10:30.231Z,64.47
2022-09-01T00:12:58.810Z,64.19
2022-09-01T00:15:27.609Z,64.15
2022-09-01T00:17:56.295Z,64.36
2022-09-01T00:20:24.675Z,64.84
2022-09-01T00:22:52.924Z,65.36
2022-09-01T00:25:24.848Z,65.67
2022-09-01T00:27:53.276Z,65.49
2022-09-01T00:30:22.760Z,65.41
2022-09-01T00:32:51.203Z,65.16
2022-09-01T00:35:20.433Z,64.98
2022-09-01T00:37:48.983Z,64.93
2022-09-01T00:40:18.500Z,64.80
2022-09-01T00:42:49.423Z,64.73
2022-09-01T00:45:19.498Z,65.15
2022-09-01T00:47:50.056Z,65.45
2022-09-01T00:50:20.426Z,65.60
2022-09-01T00:52:53.130Z,65.66
2022-09-01T00:55:33.181Z,66.36
2022-09-01T00:58:04.080Z,67.45
2022-09-01T01:00:38.552Z,70.11
2022-09-01T01:03:13.194Z,72.36
2022-09-01T01:05:54.201Z,69.39
2022-09-01T01:08:36.442Z,68.84
2022-09-01T01:11:18.072Z,68.83
2022-09-01T01:13:54.939Z,69.32
2022-09-01T01:16:26.744Z,69.96
2022-09-01T01:18:55.795Z,69.90
2022-09-01T01:21:55.234Z,70.49
2022-09-01T01:24:34.326Z,70.40
2022-09-01T01:27:03.670Z,69.50
2022-09-01T01:29:38.144Z,69.39
2022-09-01T01:32:13.485Z,68.97
2022-09-01T01:34:43.726Z,68.68
2022-09-01T01:37:14.571Z,68.70
2022-09-01T01:39:44.488Z,69.00
2022-09-01T01:42:12.977Z,68.66
2022-09-01T01:44:42.795Z,69.96
2022-09-01T01:47:13.552Z,72.21
2022-09-01T01:49:44.949Z,71.58
2022-09-01T01:52:17.664Z,73.80
2022-09-01T01:54:47.587Z,71.53
2022-09-01T01:57:18.013Z,70.60
2022-09-01T01:59:46.382Z,71.29
2022-09-01T02:02:14.731Z,71.43
2022-09-01T02:04:43.610Z,71.73
2022-09-01T02:07:13.986Z,72.19
2022-09-01T02:09:46.255Z,71.60
2022-09-01T02:12:19.792Z,70.62
2022-09-01T02:14:48.754Z,69.88
2022-09-01T02:17:18.046Z,69.58
2022-09-01T02:19:47.558Z,69.38
2022-09-01T02:22:15.861Z,69.27
2022-09-01T02:24:49.341Z,68.81
2022-09-01T02:27:25.978Z,68.99
2022-09-01T02:29:55.712Z,69.32
2022-09-01T02:32:24.217Z,69.45
2022-09-01T02:35:01.570Z,69.10
2022-09-01T02:37:29.887Z,69.11
2022-09-01T02:39:58.834Z,69.13
2022-09-01T02:42:29.369Z,69.57
2022-09-01T02:44:58.792Z,69.71
2022-09-01T02:47:29.746Z,69.81
2022-09-01T02:50:01.294Z,69.66
2022-09-01T02:52:35.687Z,69.40
2022-09-01T02:55:05.179Z,69.36
2022-09-01T02:57:36.114Z,69.31
2022-09-01T03:00:20.904Z,69.22
2022-09-01T03:02:53.085Z,69.70
2022-09-01T03:05:27.160Z,69.71
2022-09-01T03:07:58.768Z,69.59
2022-09-01T03:10:36.339Z,69.45
2022-09-01T03:13:10.573Z,69.25
2022-09-01T03:15:39.421Z,69.17
2022-09-01T03:18:10.245Z,69.23
2022-09-01T03:20:43.620Z,69.06
2022-09-01T03:23:19.236Z,69.98
2022-09-01T03:25:48.865Z,70.45
2022-09-01T03:28:17.596Z,70.14
2022-09-01T03:30:51.263Z,70.47
2022-09-01T03:33:21.505Z,70.16
2022-09-01T03:35:50.414Z,70.57
2022-09-01T03:38:24.314Z,70.74
2022-09-01T03:41:02.287Z,71.05
2022-09-01T03:43:36.328Z,70.77
2022-09-01T03:46:05.723Z,71.63
2022-09-01T03:48:36.013Z,72.74
2022-09-01T03:51:04.760Z,71.43
2022-09-01T03:53:38.396Z,71.44
2022-09-01T03:56:07.485Z,70.86
2022-09-01T03:58:35.847Z,71.78
2022-09-01T04:01:05.316Z,71.32
2022-09-01T04:03:39.841Z,71.05
2022-09-01T04:06:10.765Z,70.81
2022-09-01T04:08:39.623Z,71.04
2022-09-01T04:11:18.962Z,71.24
2022-09-01T04:13:51.118Z,71.78
2022-09-01T04:16:52.673Z,71.67
2022-09-01T04:19:26.443Z,72.79
2022-09-01T04:22:02.353Z,72.14
2022-09-01T04:24:46.138Z,72.80
2022-09-01T04:27:18.366Z,72.03
2022-09-01T04:29:47.836Z,71.50
2022-09-01T04:32:17.198Z,71.01
2022-09-01T04:34:51.097Z,70.32
2022-09-01T04:37:21.878Z,70.63
2022-09-01T04:40:00.192Z,70.93
2022-09-01T04:42:32.645Z,71.41
2022-09-01T04:45:10.731Z,71.40
2022-09-01T04:47:45.677Z,71.42
2022-09-01T04:50:18.648Z,71.17
2022-09-01T04:53:06.953Z,70.95
2022-09-01T04:55:49.834Z,70.93
2022-09-01T04:58:20.851Z,71.15
2022-09-01T05:00:53.545Z,71.15
2022-09-01T05:03:24.816Z,70.89
2022-09-01T05:06:04.018Z,70.60
2022-09-01T05:08:35.357Z,70.55
2022-09-01T05:11:08.218Z,70.34
2022-09-01T05:13:39.877Z,70.64
2022-09-01T05:16:13.470Z,70.58
2022-09-01T05:18:47.895Z,70.31
2022-09-01T05:21:22.456Z,70.23
2022-09-01T05:23:52.065Z,69.91
2022-09-01T05:26:26.319Z,69.68
2022-09-01T05:29:10.946Z,70.23
2022-09-01T05:31:45.500Z,70.03
2022-09-01T05:34:26.521Z,69.69
2022-09-01T05:37:00.004Z,68.54
2022-09-01T05:39:29.561Z,67.06
2022-09-01T05:41:59.852Z,68.08
2022-09-01T05:44:28.263Z,66.44
2022-09-01T05:47:00.244Z,66.76
2022-09-01T05:49:31.737Z,66.65
2022-09-01T05:52:00.692Z,66.44
2022-09-01T05:54:32.687Z,66.68
2022-09-01T05:57:17.397Z,65.96
2022-09-01T05:59:54.239Z,66.23
2022-09-01T06:02:27.592Z,65.92
2022-09-01T06:04:57.553Z,65.24
2022-09-01T06:07:30.500Z,64.71
2022-09-01T06:10:01.051Z,65.14
2022-09-01T06:12:29.324Z,64.78
2022-09-01T06:14:59.275Z,64.94
2022-09-01T06:17:29.018Z,64.78
2022-09-01T06:19:59.718Z,64.57
2022-09-01T06:22:29.208Z,64.88
2022-09-01T06:25:02.748Z,64.11
2022-09-01T06:27:38.933Z,62.08
2022-09-01T06:30:15.306Z,63.24
2022-09-01T06:32:51.709Z,62.66
2022-09-01T06:35:22.130Z,62.56
2022-09-01T06:37:50.524Z,61.77
2022-09-01T06:40:36.171Z,61.75
2022-09-01T06:43:08.165Z,61.71
2022-09-01T06:45:49.963Z,61.78
2022-09-01T06:48:18.738Z,61.15
2022-09-01T06:53:39.103Z,61.09
2022-09-01T06:56:12.772Z,60.86
2022-09-01T06:58:47.270Z,60.65
2022-09-01T07:01:18.169Z,59.53
2022-09-01T07:03:51.271Z,59.53
2022-09-01T07:09:48.067Z,59.62
2022-09-01T07:12:37.729Z,59.59
2022-09-01T07:17:58.446Z,59.56
2022-09-01T07:20:33.516Z,58.99
2022-09-01T07:23:04.155Z,59.30
2022-09-01T07:25:48.273Z,58.96
2022-09-01T07:28:39.938Z,58.09
2022-09-01T07:39:48.499Z,57.45
2022-09-01T07:45:47.132Z,56.67
2022-09-01T07:49:02.531Z,57.09
2022-09-01T07:54:03.746Z,55.59
2022-09-01T07:56:36.299Z,54.08
2022-09-01T07:59:14.749Z,54.31
2022-09-01T08:02:24.778Z,52.84
2022-09-01T08:04:53.410Z,52.12
2022-09-01T08:07:21.920Z,52.17
2022-09-01T08:09:50.319Z,52.07
2022-09-01T08:12:18.786Z,51.07
2022-09-01T08:17:51.644Z,50.92
2022-09-01T08:20:21.337Z,49.44
2022-09-01T08:23:19.836Z,49.74
2022-09-01T08:25:50.843Z,50.37
2022-09-01T08:28:26.549Z,49.50
2022-09-01T08:30:56.562Z,47.61
2022-09-01T08:33:27.304Z,47.56
2022-09-01T08:35:57.402Z,48.91
2022-09-01T08:38:27.074Z,47.83
2022-09-01T08:40:59.314Z,46.09
2022-09-01T08:44:05.536Z,49.09
2022-09-01T08:46:40.009Z,50.46
2022-09-01T08:49:27.832Z,51.23
2022-09-01T08:52:48.146Z,50.72
2022-09-01T08:55:39.332Z,50.26
2022-09-01T08:58:18.451Z,50.49
2022-09-01T09:01:17.835Z,50.89
2022-09-01T09:04:20.521Z,50.99
2022-09-01T09:07:10.925Z,50.35
2022-09-01T09:09:54.371Z,50.56
2022-09-01T09:12:22.657Z,50.12
2022-09-01T09:15:01.556Z,49.77
2022-09-01T09:17:37.570Z,49.83
2022-09-01T09:20:06.967Z,49.86
2022-09-01T09:22:35.285Z,49.49
2022-09-01T09:25:19.293Z,47.60
2022-09-01T09:28:00.561Z,47.33
2022-09-01T09:30:32.580Z,48.27
2022-09-01T09:33:49.778Z,47.83
2022-09-01T09:36:37.289Z,44.98
2022-09-01T09:39:17.562Z,43.47
2022-09-01T09:42:13.621Z,43.03
2022-09-01T09:44:51.281Z,43.27
2022-09-01T09:47:44.926Z,41.81
2022-09-01T09:50:24.017Z,41.06
2022-09-01T09:53:10.444Z,41.56
2022-09-01T09:56:13.864Z,41.38
2022-09-01T09:58:44.928Z,41.67
2022-09-01T10:01:29.849Z,41.84
2022-09-01T10:04:03.832Z,40.95
2022-09-01T10:06:45.435Z,40.89
2022-09-01T10:09:38.638Z,41.50
2022-09-01T10:12:07.214Z,40.21
2022-09-01T10:14:51.974Z,38.94
2022-09-01T10:17:43.918Z,39.85
2022-09-01T10:20:21.216Z,40.08
2022-09-01T10:22:50.950Z,40.28
2022-09-01T10:25:29.146Z,39.44
2022-09-01T10:28:20.941Z,38.47
2022-09-01T10:30:52.871Z,38.89
2022-09-01T10:33:22.934Z,39.65
2022-09-01T10:35:54.025Z,40.01
2022-09-01T10:38:25.676Z,41.36
2022-09-01T10:41:15.769Z,40.98
2022-09-01T10:43:50.031Z,40.74
2022-09-01T10:46:25.850Z,40.72
2022-09-01T10:49:03.032Z,40.01
2022-09-01T10:51:49.869Z,40.76
2022-09-01T10:54:57.020Z,40.74
2022-09-01T10:57:43.719Z,40.70
2022-09-01T11:00:39.837Z,40.40
2022-09-01T11:03:30.594Z,39.86
2022-09-01T11:06:14.642Z,40.67
2022-09-01T11:08:59.725Z,39.93
2022-09-01T11:11:41.904Z,39.43
2022-09-01T11:14:23.859Z,39.48
2022-09-01T11:17:16.803Z,39.82
2022-09-01T11:20:13.754Z,39.09
2022-09-01T11:22:46.707Z,38.75
2022-09-01T11:25:39.596Z,38.77
2022-09-01T11:28:15.596Z,38.87
2022-09-01T11:30:59.184Z,37.64
2022-09-01T11:34:02.619Z,37.16
2022-09-01T11:36:48.817Z,39.36
2022-09-01T11:39:20.928Z,37.75
2022-09-01T11:42:19.351Z,38.03
2022-09-01T11:45:02.306Z,37.24
2022-09-01T11:47:44.991Z,35.79
2022-09-01T11:50:28.011Z,35.08
2022-09-01T11:53:15.980Z,36.26
2022-09-01T11:55:51.739Z,35.46
2022-09-01T11:58:30.977Z,34.97
2022-09-01T12:01:31.504Z,35.05
2022-09-01T12:04:27.772Z,34.68
2022-09-01T12:07:11.086Z,35.55
2022-09-01T12:09:44.520Z,35.15
2022-09-01T12:12:33.911Z,34.76
2022-09-01T12:15:27.522Z,33.29
2022-09-01T12:18:15.369Z,34.50
2022-09-01T12:20:43.999Z,34.50
2022-09-01T12:23:30.752Z,34.10
2022-09-01T12:26:05.618Z,32.55
2022-09-01T12:28:35.547Z,33.02
2022-09-01T12:31:07.778Z,31.96
2022-09-01T12:33:37.226Z,32.28
2022-09-01T12:36:21.115Z,31.75
2022-09-01T12:38:50.405Z,31.28
2022-09-01T12:41:39.042Z,31.06
2022-09-01T12:44:29.963Z,30.60
2022-09-01T12:47:34.482Z,31.44
2022-09-01T12:50:16.423Z,32.06
2022-09-01T12:52:56.778Z,32.54
2022-09-01T12:58:25.974Z,34.28
2022-09-01T13:01:08.774Z,35.04
2022-09-01T13:04:26.600Z,35.15
2022-09-01T13:07:00.976Z,34.41
2022-09-01T13:09:30.237Z,34.12
2022-09-01T13:12:21.789Z,33.32
2022-09-01T13:14:51.040Z,32.98
2022-09-01T13:17:21.147Z,33.58
2022-09-01T13:19:49.857Z,34.08
2022-09-01T13:22:18.559Z,34.72
2022-09-01T13:24:47.251Z,34.74
2022-09-01T13:27:23.372Z,35.02
2022-09-01T13:29:52.773Z,34.95
2022-09-01T13:32:24.234Z,34.75
2022-09-01T13:34:54.374Z,35.29
2022-09-01T13:37:24.052Z,36.20
2022-09-01T13:39:52.868Z,36.76
2022-09-01T13:42:22.842Z,36.97
2022-09-01T13:44:57.014Z,36.96
2022-09-01T13:47:30.018Z,36.98
2022-09-01T13:50:10.591Z,37.12
2022-09-01T13:52:54.977Z,37.27
2022-09-01T13:55:34.772Z,37.44
2022-09-01T13:58:03.503Z,37.65
2022-09-01T14:00:37.818Z,37.90
2022-09-01T14:03:19.897Z,38.60
2022-09-01T14:05:50.252Z,39.04
2022-09-01T14:08:22.884Z,38.93
2022-09-01T14:10:54.460Z,38.89
2022-09-01T14:13:25.163Z,38.91
2022-09-01T14:15:54.982Z,38.90
2022-09-01T14:18:23.843Z,39.41
2022-09-01T14:20:52.633Z,39.32
2022-09-01T14:23:21.322Z,39.67
2022-09-01T14:25:52.126Z,39.80
2022-09-01T14:28:23.075Z,39.81
2022-09-01T14:33:24.473Z,39.90
2022-09-01T14:35:54.529Z,39.66
2022-09-01T14:38:23.272Z,39.77
2022-09-01T14:40:52.799Z,39.71
2022-09-01T14:43:22.141Z,40.15
2022-09-01T14:45:50.905Z,40.76
2022-09-01T14:48:21.003Z,39.96
2022-09-01T14:50:51.165Z,40.43
2022-09-01T14:53:20.178Z,40.23
2022-09-01T14:55:51.482Z,39.80
2022-09-01T14:58:25.987Z,39.40
2022-09-01T15:01:03.606Z,39.55
2022-09-01T15:03:36.001Z,39.43
2022-09-01T15:06:04.749Z,39.54
2022-09-01T15:08:33.235Z,40.24
2022-09-01T15:11:01.717Z,39.91
2022-09-01T15:13:30.171Z,39.75
2022-09-01T15:15:58.942Z,40.13
2022-09-01T15:18:27.554Z,40.33
2022-09-01T15:20:56.153Z,40.39
2022-09-01T15:23:26.371Z,40.49
2022-09-01T15:25:55.774Z,40.73
2022-09-01T15:28:25.786Z,40.94
2022-09-01T15:30:54.669Z,40.81
2022-09-01T15:33:23.133Z,40.71
2022-09-01T15:35:52.109Z,40.89
2022-09-01T15:38:24.977Z,40.97
2022-09-01T15:40:58.535Z,41.32
2022-09-01T15:43:31.174Z,41.38
2022-09-01T15:46:02.232Z,41.29
2022-09-01T15:48:31.101Z,41.34
2022-09-01T15:51:28.132Z,41.73
2022-09-01T15:54:08.604Z,41.91
2022-09-01T15:56:38.025Z,42.55
2022-09-01T15:59:08.659Z,42.13
2022-09-01T16:01:42.487Z,42.18
2022-09-01T16:04:19.889Z,41.76
2022-09-01T16:06:51.275Z,42.16
2022-09-01T16:09:21.380Z,42.07
2022-09-01T16:11:50.247Z,42.15
2022-09-01T16:14:21.036Z,42.12
2022-09-01T16:17:08.503Z,41.92
2022-09-01T16:19:46.242Z,42.12
2022-09-01T16:22:36.044Z,41.80
2022-09-01T16:25:24.272Z,41.80
2022-09-01T16:27:55.288Z,41.83
2022-09-01T16:30:28.871Z,41.78
2022-09-01T16:33:03.001Z,41.83
2022-09-01T16:35:48.574Z,42.27
2022-09-01T16:38:29.567Z,42.28
2022-09-01T16:41:54.405Z,42.52
2022-09-01T16:45:16.220Z,42.35
2022-09-01T16:48:12.491Z,42.51
2022-09-01T16:51:17.900Z,42.49
2022-09-01T16:54:21.234Z,42.70
2022-09-01T16:57:32.896Z,42.71
2022-09-01T17:00:09.654Z,42.79
2022-09-01T17:03:20.702Z,43.48
2022-09-01T17:06:03.816Z,43.67
2022-09-01T17:08:43.131Z,43.31
2022-09-01T17:11:33.106Z,43.39
2022-09-01T17:14:03.456Z,43.20
2022-09-01T17:16:44.591Z,43.05
2022-09-01T17:19:20.364Z,43.15
2022-09-01T17:22:00.621Z,43.30
2022-09-01T17:24:44.862Z,43.37
2022-09-01T17:27:18.851Z,43.82
2022-09-01T17:29:54.343Z,44.05
2022-09-01T17:32:41.759Z,43.76
2022-09-01T17:36:02.814Z,44.21
2022-09-01T17:38:36.756Z,43.77
2022-09-01T17:41:35.323Z,43.57
2022-09-01T17:44:45.654Z,43.41
2022-09-01T17:47:43.933Z,43.24
2022-09-01T17:50:26.895Z,43.53
2022-09-01T17:53:26.058Z,43.36
2022-09-01T17:56:13.865Z,43.47
2022-09-01T17:58:56.609Z,43.74
2022-09-01T18:01:44.766Z,43.76
2022-09-01T18:04:28.487Z,43.74
2022-09-01T18:07:04.692Z,43.69
2022-09-01T18:09:56.309Z,43.81
2022-09-01T18:12:37.571Z,43.82
2022-09-01T18:15:11.006Z,43.61
2022-09-01T18:17:48.789Z,44.75
2022-09-01T18:20:45.005Z,44.01
2022-09-01T18:23:20.361Z,44.41
2022-09-01T18:26:03.527Z,44.42
2022-09-01T18:28:32.297Z,44.12
2022-09-01T18:31:27.349Z,43.92
2022-09-01T18:34:34.725Z,44.45
2022-09-01T18:37:18.647Z,44.44
2022-09-01T18:40:09.614Z,44.57
2022-09-01T18:42:56.023Z,44.25
2022-09-01T18:45:50.166Z,44.40
2022-09-01T18:48:50.014Z,44.78
2022-09-01T18:51:32.045Z,44.37
2022-09-01T18:54:30.627Z,44.55
2022-09-01T18:57:07.068Z,44.47
2022-09-01T19:00:18.213Z,44.62
2022-09-01T19:03:10.776Z,44.66
2022-09-01T19:06:12.939Z,45.13
2022-09-01T19:09:26.058Z,46.13
2022-09-01T19:12:38.354Z,45.47
2022-09-01T19:15:20.997Z,45.36
2022-09-01T19:18:04.521Z,45.39
2022-09-01T19:20:47.093Z,45.64
2022-09-01T19:23:53.154Z,45.58
2022-09-01T19:26:26.321Z,46.14
2022-09-01T19:29:04.715Z,46.45
2022-09-01T19:31:39.918Z,46.79
2022-09-01T19:34:18.178Z,46.55
2022-09-01T19:36:57.200Z,46.26
2022-09-01T19:39:35.291Z,46.04
2022-09-01T19:42:40.669Z,46.26
2022-09-01T19:45:24.163Z,46.41
2022-09-01T19:48:22.268Z,46.86
2022-09-01T19:51:04.298Z,46.67
2022-09-01T19:54:12.693Z,46.98
2022-09-01T19:57:05.437Z,47.64
2022-09-01T20:00:06.512Z,47.94
2022-09-01T20:02:46.991Z,48.15
2022-09-01T20:05:46.410Z,48.35
2022-09-01T20:08:25.073Z,47.62
2022-09-01T20:11:20.446Z,47.75
2022-09-01T20:14:17.658Z,47.66
2022-09-01T20:16:51.692Z,48.22
2022-09-01T20:20:14.052Z,47.99
2022-09-01T20:22:51.299Z,47.82
2022-09-01T20:25:26.289Z,48.09
2022-09-01T20:28:13.408Z,47.92
2022-09-01T20:30:52.396Z,48.18
2022-09-01T20:33:30.921Z,48.39
2022-09-01T20:36:38.741Z,48.39
2022-09-01T20:39:33.080Z,48.20
2022-09-01T20:42:06.645Z,48.40
2022-09-01T20:44:57.727Z,48.19
2022-09-01T20:47:31.423Z,48.49
2022-09-01T20:50:02.802Z,48.37
2022-09-01T20:53:00.083Z,48.46
2022-09-01T20:55:41.839Z,48.65
2022-09-01T20:58:37.125Z,49.25
2022-09-01T21:01:27.815Z,48.73
2022-09-01T21:04:02.004Z,48.89
2022-09-01T21:06:55.788Z,48.90
2022-09-01T21:09:42.280Z,48.99
2022-09-01T21:12:42.646Z,49.69
2022-09-01T21:15:46.069Z,49.13
2022-09-01T21:18:37.315Z,49.31
2022-09-01T21:21:31.487Z,49.51
2022-09-01T21:23:59.892Z,49.58
2022-09-01T21:26:29.925Z,49.68
2022-09-01T21:29:12.408Z,49.65
2022-09-01T21:31:40.808Z,49.91
2022-09-01T21:34:10.358Z,49.91
2022-09-01T21:36:41.072Z,49.83
2022-09-01T21:39:09.385Z,49.97
2022-09-01T21:41:37.801Z,49.99
2022-09-01T21:44:06.788Z,50.54
2022-09-01T21:46:35.460Z,50.92
2022-09-01T21:49:04.460Z,51.83
2022-09-01T21:51:32.734Z,51.09
2022-09-01T21:54:01.038Z,51.03
2022-09-01T21:56:30.024Z,50.82
2022-09-01T21:58:59.561Z,50.67
2022-09-01T22:01:31.487Z,50.59
2022-09-01T22:04:01.299Z,50.89
2022-09-01T22:06:29.560Z,51.61
2022-09-01T22:09:02.345Z,51.22
2022-09-01T22:11:40.833Z,51.25
2022-09-01T22:14:09.864Z,51.02
2022-09-01T22:16:39.249Z,51.61
2022-09-01T22:19:07.552Z,51.64
2022-09-01T22:21:37.147Z,51.60
2022-09-01T22:24:07.242Z,51.50
2022-09-01T22:26:36.326Z,51.49
2022-09-01T22:29:07.448Z,51.46
2022-09-01T22:31:38.743Z,51.61
2022-09-01T22:34:08.011Z,52.35
2022-09-01T22:36:48.159Z,52.08
2022-09-01T22:39:19.083Z,52.41
2022-09-01T22:41:50.603Z,52.33
2022-09-01T22:44:18.893Z,52.29
2022-09-01T22:46:47.144Z,52.47
2022-09-01T22:49:15.427Z,52.37
2022-09-01T22:51:43.875Z,52.77
2022-09-01T22:54:12.256Z,53.04
2022-09-01T22:56:41.936Z,52.47
2022-09-01T22:59:14.335Z,53.05
2022-09-01T23:01:45.987Z,53.01
2022-09-01T23:04:16.484Z,53.09
2022-09-01T23:06:50.364Z,53.15
2022-09-01T23:09:21.046Z,54.30
2022-09-01T23:11:49.693Z,55.79
2022-09-01T23:14:18.787Z,54.41
2022-09-01T23:16:47.664Z,56.16
2022-09-01T23:19:22.440Z,56.93
2022-09-01T23:21:51.763Z,56.34
2022-09-01T23:24:20.993Z,57.69
2022-09-01T23:26:49.900Z,57.18
2022-09-01T23:29:18.607Z,59.28
2022-09-01T23:31:47.100Z,58.16
2022-09-01T23:34:16.955Z,58.36
2022-09-01T23:36:45.612Z,58.36
2022-09-01T23:39:14.517Z,59.10
2022-09-01T23:41:42.936Z,59.50
2022-09-01T23:44:12.656Z,58.55
2022-09-01T23:46:45.399Z,58.24
2022-09-01T23:49:17.056Z,57.98
2022-09-01T23:51:47.646Z,57.76
2022-09-01T23:54:16.165Z,58.16
2022-09-01T23:56:44.639Z,59.55
2022-09-01T23:59:13.062Z,60.22
